Flight Track Log - Related Links

Times and Time Zones

All times are in EDT time to prevent confusion due to time zone crossing. See the CTL15 flight status page for this flight to view local times or setup timezone preferences in your user account.

Time Position Orientation Groundspeed Altitude Reporting Facility
EDT Latitude Longitude Course Direction KTS MPH feet Rate Location/Type
Tue 07:04:37 PM 40.0764 -83.0875 265° West 103 119 1,200  Level Indianapolis Center
Tue 07:05:32 PM 40.0739 -83.1228 265° West 105 121 2,200 1,034 Climbing Indianapolis Center
Tue 07:06:04 PM 40.0733 -83.1428 268° West 104 120 2,700 984 Climbing Indianapolis Center
Tue 07:06:33 PM 40.0708 -83.1658 262° West 110 127 3,200 885 Climbing Indianapolis Center
Tue 07:07:05 PM 40.0636 -83.1794 235° Southwest 111 128 3,600 787 Climbing Indianapolis Center
Tue 07:07:34 PM 40.0542 -83.1967 234° Southwest 109 125 4,000 871 Climbing Indianapolis Center
Tue 07:08:07 PM 40.0481 -83.2131 244° Southwest 109 125 4,500 873 Climbing Indianapolis Center
Tue 07:08:29 PM 40.0414 -83.2278 239° Southwest 105 121 4,800 787 Climbing Indianapolis Center
Tue 07:09:08 PM 40.0331 -83.2458 239° Southwest 106 122 5,300 896 Climbing Indianapolis Center
Tue 07:09:36 PM 40.0242 -83.2639 237° Southwest 104 120 5,800 677 Climbing Indianapolis Center
Tue 07:10:10 PM 40.0186 -83.2786 244° Southwest 105 121 6,000 197 Climbing Indianapolis Center
Tue 07:10:37 PM 40.0092 -83.3003 240° Southwest 137 158 6,000  Level Indianapolis Center
Tue 07:11:12 PM 40.0006 -83.3197 240° Southwest 116 133 6,000 -98 Level Indianapolis Center
Tue 07:11:38 PM 39.9869 -83.3467 237° Southwest 141 162 5,900  Descending Indianapolis Center
Tue 07:12:14 PM 39.9803 -83.3664 246° West 134 154 6,000 109 Climbing Indianapolis Center
Tue 07:12:33 PM 39.9717 -83.3856 240° Southwest 141 162 6,000  Level Indianapolis Center
Tue 07:13:15 PM 39.9608 -83.4125 242° Southwest 141 162 6,000  Level Indianapolis Center
Tue 07:13:33 PM 39.9514 -83.4347 241° Southwest 146 168 6,000  Level Indianapolis Center
Tue 07:14:17 PM 39.9378 -83.4650 240° Southwest 143 165 6,000  Level Indianapolis Center
Tue 07:14:34 PM 39.9311 -83.4814 242° Southwest 141 162 6,000  Level Indianapolis Center
Tue 07:15:19 PM 39.9192 -83.5103 242° Southwest 143 165 6,000  Level Indianapolis Center
Tue 07:15:35 PM 39.9133 -83.5253 243° Southwest 143 165 6,000 -97 Level Indianapolis Center
Tue 07:16:21 PM 39.9006 -83.5561 242° Southwest 143 165 5,900 -358 Descending Indianapolis Center
Tue 07:16:42 PM 39.8908 -83.5769 239° Southwest 148 170 5,600 -689 Descending Indianapolis Center
Tue 07:17:22 PM 39.8786 -83.6042 240° Southwest 150 173 5,200 -689 Descending Indianapolis Center
Tue 07:17:43 PM 39.8681 -83.6286 241° Southwest 168 193 4,900 -677 Descending Indianapolis Center
Tue 07:18:24 PM 39.8553 -83.6583 241° Southwest 162 186 4,500 -590 Descending Indianapolis Center
Tue 07:18:44 PM 39.8431 -83.6853 239° Southwest 167 192 4,300 -484 Descending Indianapolis Center
Tue 07:19:26 PM 39.8300 -83.7103 236° Southwest 168 193 4,000 -295 Descending Indianapolis Center
Tue 07:19:45 PM 39.8181 -83.7364 239° Southwest 164 189 4,000  Level Indianapolis Center
Tue 07:20:28 PM 39.8011 -83.7678 235° Southwest 165 190 4,000  Level Indianapolis Center
Tue 07:20:46 PM 39.7939 -83.7822 237° Southwest 154 177 4,000  Level Indianapolis Center
Tue 07:21:29 PM 39.7789 -83.8156 240° Southwest 159 183 4,000  Level Indianapolis Center
Tue 07:21:47 PM 39.7714 -83.8308 237° Southwest 151 174 4,000  Level Indianapolis Center
Tue 07:22:31 PM 39.7586 -83.8622 242° Southwest 152 175 4,000  Level Indianapolis Center
Tue 07:22:48 PM 39.7511 -83.8772 237° Southwest 150 173 4,000 -97 Level Indianapolis Center
Tue 07:23:33 PM 39.7414 -83.9011 242° Southwest 150 173 3,900 -133 Descending Indianapolis Center

Login

Don't have an account? Register now (free) for customized features, flight alerts, and more!